createdAt,value
2019-04-27T00:00:04.513Z,15.10
2019-04-27T00:01:10.530Z,17.60
2019-04-27T00:02:05.727Z,15.20
2019-04-27T00:04:05.519Z,16.50
2019-04-27T00:06:08.463Z,17.40
2019-04-27T00:07:07.937Z,16.50
2019-04-27T00:08:04.409Z,16.70
2019-04-27T00:10:05.435Z,14.20
2019-04-27T00:12:05.814Z,14.80
2019-04-27T00:14:05.403Z,14.70
2019-04-27T00:15:08.279Z,14.40
2019-04-27T00:16:09.789Z,13.30
2019-04-27T00:17:08.727Z,15.70
2019-04-27T00:18:04.306Z,13.40
2019-04-27T00:20:04.515Z,15.00
2019-04-27T00:22:05.349Z,15.50
2019-04-27T00:23:06.377Z,14.80
2019-04-27T00:24:04.275Z,12.70
2019-04-27T00:25:06.497Z,13.60
2019-04-27T00:26:04.211Z,14.30
2019-04-27T00:27:04.299Z,13.40
2019-04-27T00:29:08.926Z,16.30
2019-04-27T00:30:04.219Z,15.70
2019-04-27T00:31:04.438Z,14.20
2019-04-27T00:32:04.429Z,15.80
2019-04-27T00:33:05.342Z,15.40
2019-04-27T00:34:04.174Z,12.60
2019-04-27T00:35:04.112Z,17.70
2019-04-27T00:36:04.217Z,15.10
2019-04-27T00:37:04.098Z,15.30
2019-04-27T00:38:04.159Z,13.60
2019-04-27T00:39:05.308Z,13.70
2019-04-27T00:40:04.145Z,12.60
2019-04-27T00:41:04.045Z,12.30
2019-04-27T00:42:04.151Z,13.30
2019-04-27T00:43:04.152Z,10.50
2019-04-27T00:44:04.066Z,13.30
2019-04-27T00:45:05.378Z,14.70
2019-04-27T00:46:04.192Z,15.20
2019-04-27T00:47:03.978Z,13.20
2019-04-27T00:48:04.030Z,13.90
2019-04-27T00:49:03.956Z,13.50
2019-04-27T00:50:04.009Z,13.30
2019-04-27T00:51:04.328Z,12.80
2019-04-27T00:52:04.026Z,12.10
2019-04-27T00:53:03.945Z,12.50
2019-04-27T00:54:04.702Z,13.70
2019-04-27T00:55:03.895Z,12.60
2019-04-27T00:56:04.054Z,11.40
2019-04-27T00:57:03.868Z,11.10
2019-04-27T00:58:04.249Z,9.80
2019-04-27T00:59:03.853Z,13.90
2019-04-27T01:00:05.186Z,14.60
2019-04-27T01:01:04.155Z,10.50
2019-04-27T01:02:03.894Z,11.00
2019-04-27T01:03:03.936Z,11.60
2019-04-27T01:04:03.935Z,9.90
2019-04-27T01:05:05.787Z,10.10
2019-04-27T01:06:03.812Z,10.80
2019-04-27T01:07:03.764Z,7.90
2019-04-27T01:08:03.969Z,12.50
2019-04-27T01:09:03.762Z,9.20
2019-04-27T01:10:05.315Z,10.00
2019-04-27T01:11:03.730Z,10.60
2019-04-27T01:12:03.755Z,10.60
2019-04-27T01:13:03.712Z,9.90
2019-04-27T01:14:03.972Z,10.00
2019-04-27T01:15:03.759Z,9.70
2019-04-27T01:16:03.794Z,9.90
2019-04-27T01:17:03.667Z,9.60
2019-04-27T01:18:12.161Z,8.20
2019-04-27T01:19:04.662Z,11.20
2019-04-27T01:20:03.704Z,9.00
2019-04-27T01:21:03.611Z,9.40
2019-04-27T01:22:03.721Z,7.80
2019-04-27T01:23:03.592Z,10.70
2019-04-27T01:24:03.661Z,9.30
2019-04-27T01:25:03.567Z,7.70
2019-04-27T01:26:03.655Z,10.40
2019-04-27T01:27:03.546Z,9.40
2019-04-27T01:28:03.656Z,11.40
2019-04-27T01:29:03.554Z,9.40
2019-04-27T01:30:03.578Z,9.10
2019-04-27T01:31:03.522Z,10.30
2019-04-27T01:32:03.582Z,9.90
2019-04-27T01:33:03.479Z,9.60
2019-04-27T01:34:03.525Z,9.90
2019-04-27T01:35:03.472Z,9.80
2019-04-27T01:36:03.511Z,8.30
2019-04-27T01:37:03.434Z,8.40
2019-04-27T01:38:03.527Z,14.70
2019-04-27T01:39:03.439Z,8.40
2019-04-27T01:40:03.439Z,9.60
2019-04-27T01:41:03.397Z,11.50
2019-04-27T01:42:03.451Z,7.90
2019-04-27T01:43:03.382Z,8.50
2019-04-27T01:44:03.501Z,8.30
2019-04-27T01:45:03.354Z,10.10
2019-04-27T01:46:03.376Z,8.10
2019-04-27T01:47:03.330Z,9.70
2019-04-27T01:48:03.387Z,9.20
2019-04-27T01:49:03.337Z,7.30
2019-04-27T01:50:03.431Z,9.30
2019-04-27T01:51:03.286Z,8.70
2019-04-27T01:52:03.320Z,7.60
2019-04-27T01:53:03.266Z,9.20
2019-04-27T01:54:03.339Z,9.40
2019-04-27T01:55:03.269Z,6.90
2019-04-27T01:56:03.347Z,8.30
2019-04-27T01:57:04.292Z,8.40
2019-04-27T01:58:03.257Z,6.70
2019-04-27T01:59:03.193Z,8.70
2019-04-27T02:00:03.304Z,7.50
2019-04-27T02:01:03.175Z,9.10
2019-04-27T02:02:03.281Z,8.90
2019-04-27T02:03:03.161Z,7.70
2019-04-27T02:04:03.194Z,7.80
2019-04-27T02:05:03.172Z,7.60
2019-04-27T02:06:03.208Z,9.50
2019-04-27T02:07:03.109Z,6.00
2019-04-27T02:08:03.227Z,9.50
2019-04-27T02:09:03.085Z,7.50
2019-04-27T02:10:03.164Z,6.40
2019-04-27T02:11:03.059Z,6.70
2019-04-27T02:12:03.147Z,8.50
2019-04-27T02:13:03.051Z,7.40
2019-04-27T02:14:03.075Z,6.80
2019-04-27T02:15:03.052Z,7.20
2019-04-27T02:16:03.076Z,7.60
2019-04-27T02:17:02.996Z,8.20
2019-04-27T02:18:03.085Z,7.00
2019-04-27T02:19:02.997Z,6.70
2019-04-27T02:20:03.027Z,7.10
2019-04-27T02:21:02.949Z,8.40
2019-04-27T02:22:03.017Z,6.70
2019-04-27T02:23:02.934Z,6.40
2019-04-27T02:24:03.030Z,5.90
2019-04-27T02:25:02.953Z,6.30
2019-04-27T02:26:02.960Z,6.50
2019-04-27T02:27:02.897Z,7.60
2019-04-27T02:28:02.955Z,5.90
2019-04-27T02:29:02.866Z,7.90
2019-04-27T02:30:02.984Z,6.90
2019-04-27T02:31:02.882Z,7.10
2019-04-27T02:32:03.193Z,5.50
2019-04-27T02:33:02.822Z,5.50
2019-04-27T02:34:02.893Z,6.10
2019-04-27T02:35:02.809Z,7.30
2019-04-27T02:36:02.938Z,8.10
2019-04-27T02:37:03.007Z,7.80
2019-04-27T02:38:02.819Z,5.40
2019-04-27T02:39:02.757Z,6.60
2019-04-27T02:40:02.857Z,5.40
2019-04-27T02:41:02.767Z,7.30
2019-04-27T02:42:02.885Z,7.50
2019-04-27T02:43:02.723Z,6.40
2019-04-27T02:44:02.764Z,5.70
2019-04-27T02:45:02.690Z,6.20
2019-04-27T02:46:02.801Z,5.60
2019-04-27T02:47:02.682Z,5.30
2019-04-27T02:48:02.786Z,5.20
2019-04-27T02:49:06.515Z,7.40
2019-04-27T02:50:02.707Z,9.70
2019-04-27T02:51:02.681Z,6.40
2019-04-27T02:52:02.710Z,6.80
2019-04-27T02:53:03.196Z,7.50
2019-04-27T02:54:02.620Z,5.30
2019-04-27T02:55:02.615Z,5.80
2019-04-27T02:56:02.662Z,5.10
2019-04-27T02:57:02.560Z,7.40
2019-04-27T02:58:02.656Z,6.60
2019-04-27T02:59:02.552Z,5.30
2019-04-27T03:00:02.573Z,6.00
2019-04-27T03:01:02.572Z,6.10
2019-04-27T03:02:02.575Z,6.20
2019-04-27T03:03:02.583Z,5.10
2019-04-27T03:04:02.587Z,7.30
2019-04-27T03:05:02.476Z,7.20
2019-04-27T03:06:02.500Z,6.40
2019-04-27T03:07:02.500Z,7.70
2019-04-27T03:08:02.517Z,7.40
2019-04-27T03:09:02.441Z,5.30
2019-04-27T03:10:02.872Z,6.60
2019-04-27T03:11:02.422Z,6.40
2019-04-27T03:12:02.466Z,7.50
2019-04-27T03:13:02.389Z,8.20
2019-04-27T03:14:02.455Z,7.80
2019-04-27T03:15:02.375Z,10.80
2019-04-27T03:16:02.468Z,6.70
2019-04-27T03:17:02.372Z,5.50
2019-04-27T03:18:02.381Z,6.30
2019-04-27T03:19:11.515Z,6.50
2019-04-27T03:20:03.314Z,5.40
2019-04-27T03:21:02.399Z,5.10
2019-04-27T03:22:02.338Z,6.90
2019-04-27T03:23:02.326Z,6.30
2019-04-27T03:24:02.282Z,5.90
2019-04-27T03:25:02.343Z,7.20
2019-04-27T03:26:02.252Z,6.60
2019-04-27T03:27:02.340Z,5.60
2019-04-27T03:28:02.745Z,5.40
2019-04-27T03:29:02.250Z,5.70
2019-04-27T03:30:02.230Z,5.30
2019-04-27T03:31:03.077Z,6.60
2019-04-27T03:32:02.335Z,9.50
2019-04-27T03:33:03.586Z,5.70
2019-04-27T03:34:05.128Z,4.60
2019-04-27T03:35:03.424Z,7.50
2019-04-27T03:36:03.052Z,5.00
2019-04-27T03:37:02.210Z,7.30
2019-04-27T03:38:02.214Z,7.50
2019-04-27T03:39:02.217Z,5.60
2019-04-27T03:40:02.138Z,4.80
2019-04-27T03:41:02.128Z,5.50
2019-04-27T03:42:02.081Z,5.30
2019-04-27T03:43:02.173Z,4.40
2019-04-27T03:44:02.062Z,7.10
2019-04-27T03:45:02.164Z,6.10
2019-04-27T03:46:02.058Z,5.20
2019-04-27T03:47:02.075Z,4.10
2019-04-27T03:48:02.193Z,5.10
2019-04-27T03:49:02.085Z,5.00
2019-04-27T03:50:02.010Z,5.20
2019-04-27T03:51:02.103Z,4.60
2019-04-27T03:52:03.101Z,4.30
2019-04-27T03:53:02.058Z,5.50
2019-04-27T03:54:01.951Z,5.40
2019-04-27T03:55:02.021Z,4.40
2019-04-27T03:56:01.929Z,4.30
2019-04-27T03:57:02.591Z,6.00
2019-04-27T03:58:01.927Z,5.20
2019-04-27T03:59:01.962Z,4.60
2019-04-27T04:00:01.887Z,4.40
2019-04-27T04:01:01.971Z,4.50
2019-04-27T04:02:02.477Z,3.40
2019-04-27T04:03:01.917Z,6.90
2019-04-27T04:04:01.841Z,7.70
2019-04-27T04:05:01.947Z,4.20
2019-04-27T04:06:01.812Z,6.90
2019-04-27T04:07:01.913Z,5.70
2019-04-27T04:08:01.828Z,5.40
2019-04-27T04:09:01.852Z,3.70
2019-04-27T04:10:01.779Z,3.50
2019-04-27T04:11:01.828Z,5.10
2019-04-27T04:12:02.269Z,4.50
2019-04-27T04:13:01.992Z,3.60
2019-04-27T04:14:01.754Z,6.60
2019-04-27T04:15:01.781Z,3.40
2019-04-27T04:16:01.710Z,6.30
2019-04-27T04:17:02.983Z,7.20
2019-04-27T04:18:01.720Z,4.80
2019-04-27T04:19:01.809Z,3.90
2019-04-27T04:20:02.031Z,4.50
2019-04-27T04:21:01.691Z,5.70
2019-04-27T04:22:01.645Z,5.20
2019-04-27T04:23:03.419Z,4.50
2019-04-27T04:24:01.640Z,5.00
2019-04-27T04:25:01.779Z,4.30
2019-04-27T04:26:01.594Z,5.50
2019-04-27T04:27:01.632Z,6.00
2019-04-27T04:28:01.580Z,3.20
2019-04-27T04:29:01.678Z,5.30
2019-04-27T04:30:01.552Z,5.00
2019-04-27T04:31:01.667Z,3.50
2019-04-27T04:32:01.550Z,4.30
2019-04-27T04:33:01.577Z,4.50
2019-04-27T04:34:01.551Z,4.30
2019-04-27T04:35:01.589Z,6.70
2019-04-27T04:36:01.500Z,4.20
2019-04-27T04:37:01.608Z,3.70
2019-04-27T04:38:01.490Z,4.50
2019-04-27T04:39:01.518Z,5.10
2019-04-27T04:40:01.491Z,3.70
2019-04-27T04:41:01.530Z,3.40
2019-04-27T04:42:01.470Z,6.00
2019-04-27T04:43:03.351Z,4.80
2019-04-27T04:44:01.448Z,5.90
2019-04-27T04:45:01.485Z,4.50
2019-04-27T04:46:01.389Z,5.20
2019-04-27T04:47:01.482Z,5.20
2019-04-27T04:48:01.358Z,5.00
2019-04-27T04:49:01.381Z,6.70
2019-04-27T04:50:10.741Z,4.40
2019-04-27T04:51:02.332Z,6.20
2019-04-27T04:52:01.399Z,5.50
2019-04-27T04:53:01.348Z,5.70
2019-04-27T04:54:01.486Z,6.90
2019-04-27T04:55:02.774Z,6.00
2019-04-27T04:56:01.327Z,6.10
2019-04-27T04:57:01.262Z,5.40
2019-04-27T04:58:01.342Z,3.30
2019-04-27T04:59:01.271Z,3.80
2019-04-27T05:00:01.403Z,4.10
2019-04-27T05:01:01.899Z,3.40
2019-04-27T05:02:02.358Z,3.00
2019-04-27T05:03:01.195Z,6.30
2019-04-27T05:04:01.291Z,3.70
2019-04-27T05:05:01.216Z,5.00
2019-04-27T05:06:01.295Z,4.40
2019-04-27T05:07:01.153Z,5.10
2019-04-27T05:08:01.201Z,5.60
2019-04-27T05:09:01.129Z,5.50
2019-04-27T05:10:01.260Z,5.10
2019-04-27T05:11:01.149Z,5.60
2019-04-27T05:12:01.229Z,4.80
2019-04-27T05:13:01.081Z,4.70
2019-04-27T05:14:01.498Z,4.40
2019-04-27T05:15:01.107Z,5.60
2019-04-27T05:16:01.157Z,5.30
2019-04-27T05:17:01.043Z,3.20
2019-04-27T05:18:01.070Z,4.60
2019-04-27T05:19:01.022Z,6.80
2019-04-27T05:20:01.087Z,3.70
2019-04-27T05:21:01.024Z,3.90
2019-04-27T05:22:01.096Z,5.40
2019-04-27T05:23:01.043Z,6.40
2019-04-27T05:24:01.003Z,4.50
2019-04-27T05:25:01.006Z,5.10
2019-04-27T05:26:01.021Z,4.10
2019-04-27T05:27:00.945Z,5.60
2019-04-27T05:28:01.047Z,3.60
2019-04-27T05:29:00.921Z,4.20
2019-04-27T05:30:00.978Z,2.90
2019-04-27T05:31:00.929Z,5.00
2019-04-27T05:32:00.964Z,5.50
2019-04-27T05:33:00.881Z,4.80
2019-04-27T05:34:00.974Z,5.70
2019-04-27T05:35:00.865Z,3.50
2019-04-27T05:36:00.940Z,4.20
2019-04-27T05:37:01.131Z,5.80
2019-04-27T05:38:07.080Z,3.80
2019-04-27T05:39:01.805Z,3.60
2019-04-27T05:40:00.909Z,6.30
2019-04-27T05:41:00.805Z,5.50
2019-04-27T05:42:00.818Z,4.20
2019-04-27T05:43:00.769Z,4.90
2019-04-27T05:44:03.199Z,4.90
2019-04-27T05:45:01.741Z,2.40
2019-04-27T05:46:01.231Z,4.60
2019-04-27T05:47:00.722Z,4.70
2019-04-27T05:48:00.808Z,3.80
2019-04-27T05:49:06.023Z,5.20
2019-04-27T05:50:01.804Z,2.70
2019-04-27T05:51:01.962Z,3.90
2019-04-27T05:52:00.832Z,4.20
2019-04-27T05:53:00.722Z,4.80
2019-04-27T05:54:00.711Z,6.70
2019-04-27T05:55:00.652Z,4.60
2019-04-27T05:56:00.741Z,4.10
2019-04-27T05:57:00.626Z,4.20
2019-04-27T05:58:00.634Z,4.10
2019-04-27T05:59:00.586Z,3.20
2019-04-27T06:00:02.244Z,4.30
2019-04-27T06:01:00.595Z,4.90
2019-04-27T06:02:00.686Z,5.10
2019-04-27T06:03:00.543Z,4.70
2019-04-27T06:04:00.585Z,4.90
2019-04-27T06:05:00.530Z,2.90
2019-04-27T06:06:01.699Z,6.10
2019-04-27T06:07:00.985Z,3.80
2019-04-27T06:08:00.645Z,4.80
2019-04-27T06:09:00.484Z,4.40
2019-04-27T06:10:00.524Z,4.90
2019-04-27T06:11:00.465Z,3.20
2019-04-27T06:12:00.657Z,3.70
2019-04-27T06:13:00.442Z,4.40
2019-04-27T06:14:00.541Z,3.90
2019-04-27T06:15:00.418Z,4.20
2019-04-27T06:16:00.445Z,4.10
2019-04-27T06:17:00.430Z,3.80
2019-04-27T06:18:00.465Z,4.80
2019-04-27T06:19:00.388Z,4.30
2019-04-27T06:20:00.468Z,6.10
2019-04-27T06:21:00.343Z,3.50
2019-04-27T06:22:01.416Z,5.20
2019-04-27T06:23:00.333Z,3.10
2019-04-27T06:24:00.397Z,4.70
2019-04-27T06:25:00.537Z,3.20
2019-04-27T06:26:01.781Z,5.00
2019-04-27T06:27:00.308Z,4.10
2019-04-27T06:28:00.329Z,4.60
2019-04-27T06:29:00.260Z,6.20
2019-04-27T06:30:00.350Z,5.70
2019-04-27T06:31:00.241Z,5.00
2019-04-27T06:32:00.381Z,3.40
2019-04-27T06:33:00.223Z,6.20
2019-04-27T06:34:00.273Z,5.10
2019-04-27T06:35:00.188Z,5.70
2019-04-27T06:36:01.868Z,3.90
2019-04-27T06:37:00.212Z,5.20
2019-04-27T06:38:00.233Z,4.10
2019-04-27T06:39:00.147Z,5.70
2019-04-27T06:40:00.317Z,3.20
2019-04-27T06:41:01.438Z,5.30
2019-04-27T06:42:01.316Z,4.10
2019-04-27T06:43:00.152Z,4.50
2019-04-27T06:44:00.133Z,4.10
2019-04-27T06:45:00.212Z,4.60
2019-04-27T06:46:00.147Z,6.40
2019-04-27T06:47:00.066Z,4.50
2019-04-27T06:48:00.180Z,4.80
2019-04-27T06:49:00.049Z,4.30
2019-04-27T06:50:00.065Z,5.60
2019-04-27T06:51:03.594Z,5.10
2019-04-27T06:52:01.153Z,4.80
2019-04-27T06:53:00.016Z,4.20
2019-04-27T06:54:00.125Z,3.40
2019-04-27T06:55:00.654Z,5.40
2019-04-27T06:56:00.009Z,6.00
2019-04-27T06:56:59.950Z,4.30
2019-04-27T06:58:00.053Z,6.20
2019-04-27T06:58:59.926Z,7.40
2019-04-27T07:00:00.056Z,7.90
2019-04-27T07:00:59.924Z,4.60
2019-04-27T07:02:00.927Z,5.30
2019-04-27T07:02:59.886Z,5.90
2019-04-27T07:03:59.991Z,5.60
2019-04-27T07:04:59.867Z,5.10
2019-04-27T07:05:59.972Z,5.00
2019-04-27T07:07:01.707Z,3.50
2019-04-27T07:07:59.918Z,5.70
2019-04-27T07:08:59.913Z,6.60
2019-04-27T07:09:59.907Z,6.60
2019-04-27T07:10:59.872Z,4.70
2019-04-27T07:11:59.912Z,5.80
2019-04-27T07:12:59.856Z,5.70
2019-04-27T07:13:59.854Z,5.30
2019-04-27T07:14:59.758Z,5.30
2019-04-27T07:15:59.842Z,4.20
2019-04-27T07:16:59.750Z,4.80
2019-04-27T07:17:59.878Z,5.10
2019-04-27T07:18:59.753Z,6.50
2019-04-27T07:19:59.760Z,6.80
2019-04-27T07:20:59.703Z,7.40
2019-04-27T07:21:59.797Z,3.80
2019-04-27T07:22:59.671Z,7.40
2019-04-27T07:23:59.879Z,8.20
2019-04-27T07:24:59.650Z,6.10
2019-04-27T07:25:59.961Z,7.00
2019-04-27T07:26:59.846Z,5.80
2019-04-27T07:27:59.728Z,10.30
2019-04-27T07:28:59.879Z,6.90
2019-04-27T07:30:01.697Z,8.90
2019-04-27T07:30:59.587Z,6.20
2019-04-27T07:31:59.835Z,6.60
2019-04-27T07:33:00.407Z,7.40
2019-04-27T07:33:59.707Z,5.80
2019-04-27T07:34:59.566Z,6.90
2019-04-27T07:35:59.576Z,9.20
2019-04-27T07:36:59.863Z,6.50
2019-04-27T07:37:59.576Z,6.30
2019-04-27T07:38:59.981Z,7.70
2019-04-27T07:39:59.593Z,7.00
2019-04-27T07:40:59.473Z,8.00
2019-04-27T07:41:59.506Z,5.40
2019-04-27T07:42:59.487Z,7.10
2019-04-27T07:43:59.537Z,7.50
2019-04-27T07:44:59.589Z,7.40
2019-04-27T07:45:59.557Z,7.80
2019-04-27T07:46:59.493Z,10.70
2019-04-27T07:47:59.450Z,8.30
2019-04-27T07:48:59.559Z,8.50
2019-04-27T07:50:01.499Z,8.40
2019-04-27T07:50:59.366Z,9.10
2019-04-27T07:51:59.473Z,6.80
2019-04-27T07:52:59.344Z,8.40
2019-04-27T07:53:59.397Z,7.60
2019-04-27T07:54:59.365Z,8.90
2019-04-27T07:55:59.402Z,8.70
2019-04-27T07:56:59.302Z,11.90
2019-04-27T07:57:59.864Z,7.80
2019-04-27T07:58:59.619Z,7.30
2019-04-27T07:59:59.767Z,8.40
2019-04-27T08:00:59.553Z,9.10
2019-04-27T08:01:59.336Z,8.70
2019-04-27T08:02:59.273Z,12.90
2019-04-27T08:03:59.354Z,8.40
2019-04-27T08:04:59.694Z,8.80
2019-04-27T08:05:59.304Z,10.70
2019-04-27T08:06:59.565Z,12.20
2019-04-27T08:08:00.202Z,10.40
2019-04-27T08:08:59.460Z,12.90
2019-04-27T08:10:01.586Z,12.40
2019-04-27T08:10:59.562Z,10.80
2019-04-27T08:11:59.216Z,10.90
2019-04-27T08:12:59.739Z,11.70
2019-04-27T08:13:59.217Z,11.40
2019-04-27T08:15:00.060Z,13.00
2019-04-27T08:15:59.159Z,12.80
2019-04-27T08:16:59.269Z,12.90
2019-04-27T08:17:59.333Z,14.20
2019-04-27T08:19:00.029Z,13.70
2019-04-27T08:19:59.608Z,12.80
2019-04-27T08:20:59.165Z,12.00
2019-04-27T08:21:59.565Z,13.30
2019-04-27T08:22:59.846Z,14.80
2019-04-27T08:23:59.080Z,13.60
2019-04-27T08:24:59.496Z,13.10
2019-04-27T08:25:59.133Z,14.10
2019-04-27T08:26:59.457Z,9.20
2019-04-27T08:28:00.297Z,12.40
2019-04-27T08:28:58.956Z,12.60
2019-04-27T08:29:59.041Z,12.60
2019-04-27T08:31:00.382Z,10.50
2019-04-27T08:31:59.033Z,11.00
2019-04-27T08:32:59.379Z,12.60
2019-04-27T08:34:00.074Z,11.70
2019-04-27T08:34:59.457Z,15.10
2019-04-27T08:35:59.175Z,14.40
2019-04-27T08:37:00.796Z,15.50
2019-04-27T08:37:59.508Z,15.50
2019-04-27T08:38:58.971Z,11.50
2019-04-27T08:39:59.259Z,12.80
2019-04-27T08:40:59.310Z,10.80
2019-04-27T08:41:59.494Z,14.00
2019-04-27T08:42:59.180Z,15.70
2019-04-27T08:43:58.842Z,16.10
2019-04-27T08:44:59.387Z,14.30
2019-04-27T08:46:00.348Z,13.80
2019-04-27T08:46:59.629Z,12.20
2019-04-27T08:47:59.444Z,15.60
2019-04-27T08:48:58.810Z,9.80
2019-04-27T08:49:59.177Z,12.40
2019-04-27T08:50:59.359Z,13.70
2019-04-27T08:52:01.755Z,13.40
2019-04-27T08:53:00.685Z,14.50
2019-04-27T08:53:59.174Z,11.70
2019-04-27T08:54:59.415Z,13.10
2019-04-27T08:55:59.195Z,11.90
2019-04-27T08:57:01.403Z,14.50
2019-04-27T08:57:58.842Z,12.20
2019-04-27T08:58:59.518Z,15.70
2019-04-27T08:59:59.622Z,12.30
2019-04-27T09:00:59.097Z,12.30
2019-04-27T09:01:58.854Z,10.40
2019-04-27T09:02:59.511Z,13.10
2019-04-27T09:03:59.268Z,14.00
2019-04-27T09:04:59.640Z,16.90
2019-04-27T09:05:59.135Z,14.00
2019-04-27T09:06:59.779Z,15.80
2019-04-27T09:07:59.690Z,12.50
2019-04-27T09:08:59.283Z,12.90
2019-04-27T09:09:59.646Z,13.10
2019-04-27T09:10:59.022Z,15.60
2019-04-27T09:11:59.459Z,12.90
2019-04-27T09:12:58.931Z,14.80
2019-04-27T09:13:58.951Z,16.60
2019-04-27T09:14:59.190Z,13.90
2019-04-27T09:16:00.027Z,12.80
2019-04-27T09:17:02.278Z,12.10
2019-04-27T09:17:58.912Z,13.00
2019-04-27T09:18:59.765Z,12.10
2019-04-27T09:19:59.138Z,11.70
2019-04-27T09:20:58.982Z,11.90
2019-04-27T09:22:10.344Z,11.60
2019-04-27T09:22:59.359Z,10.30
2019-04-27T09:23:59.281Z,14.10
2019-04-27T09:24:59.468Z,10.90
2019-04-27T09:25:59.477Z,13.30
2019-04-27T09:26:59.594Z,10.80
2019-04-27T09:27:59.753Z,9.80
2019-04-27T09:28:59.573Z,9.40
2019-04-27T09:29:59.070Z,12.60
2019-04-27T09:30:58.871Z,10.80
2019-04-27T09:31:59.600Z,10.70
2019-04-27T09:32:58.293Z,9.70
2019-04-27T09:33:58.341Z,13.30
2019-04-27T09:34:58.248Z,13.40
2019-04-27T09:36:59.311Z,10.70
2019-04-27T09:37:58.298Z,12.30
2019-04-27T09:38:58.186Z,11.90
2019-04-27T09:39:58.278Z,11.60
2019-04-27T09:40:58.296Z,9.70
2019-04-27T09:41:58.194Z,12.70
2019-04-27T09:42:58.208Z,14.10
2019-04-27T09:43:58.213Z,10.00
2019-04-27T09:44:58.151Z,13.70
2019-04-27T09:45:58.294Z,12.90
2019-04-27T09:46:58.122Z,11.10
2019-04-27T09:47:58.163Z,12.80
2019-04-27T09:48:58.074Z,10.50
2019-04-27T09:49:58.163Z,12.70
2019-04-27T09:50:58.054Z,9.00
2019-04-27T09:51:58.171Z,12.30
2019-04-27T09:52:58.070Z,11.50
2019-04-27T09:53:58.068Z,11.00
2019-04-27T09:54:58.010Z,11.50
2019-04-27T09:55:58.093Z,9.10
2019-04-27T09:56:57.992Z,10.10
2019-04-27T09:57:58.136Z,11.20
2019-04-27T09:58:57.975Z,13.60
2019-04-27T09:59:58.012Z,11.70
2019-04-27T10:00:57.950Z,17.30
2019-04-27T10:01:58.028Z,12.80
2019-04-27T10:02:57.965Z,14.70
2019-04-27T10:03:58.042Z,11.30
2019-04-27T10:04:57.912Z,10.20
2019-04-27T10:05:57.957Z,14.20
2019-04-27T10:06:57.888Z,14.80
2019-04-27T10:07:58.039Z,10.70
2019-04-27T10:08:57.870Z,14.90
2019-04-27T10:09:57.980Z,13.80
2019-04-27T10:10:57.852Z,14.10
2019-04-27T10:11:57.894Z,13.10
2019-04-27T10:12:57.852Z,15.90
2019-04-27T10:13:57.915Z,14.90
2019-04-27T10:14:57.801Z,12.00
2019-04-27T10:15:57.818Z,11.80
2019-04-27T10:16:57.774Z,10.90
2019-04-27T10:17:57.901Z,14.00
2019-04-27T10:18:57.750Z,10.80
2019-04-27T10:19:57.856Z,11.10
2019-04-27T10:21:01.891Z,12.50
2019-04-27T10:21:57.755Z,13.50
2019-04-27T10:22:57.818Z,11.50
2019-04-27T10:23:57.771Z,15.20
2019-04-27T10:24:57.691Z,17.90
2019-04-27T10:25:57.786Z,15.00
2019-04-27T10:26:57.673Z,10.50
2019-04-27T10:27:57.694Z,12.80
2019-04-27T10:28:57.689Z,10.10
2019-04-27T10:29:58.503Z,10.10
2019-04-27T10:30:57.705Z,11.20
2019-04-27T10:31:57.722Z,10.00
2019-04-27T10:32:57.626Z,10.50
2019-04-27T10:33:57.670Z,7.50
2019-04-27T10:34:57.581Z,7.90
2019-04-27T10:35:57.649Z,9.50
2019-04-27T10:36:57.559Z,7.70
2019-04-27T10:37:57.663Z,10.00
2019-04-27T10:38:57.580Z,9.90
2019-04-27T10:39:57.578Z,8.60
2019-04-27T10:40:57.520Z,9.00
2019-04-27T10:41:57.603Z,9.10
2019-04-27T10:42:57.508Z,13.10
2019-04-27T10:43:57.609Z,8.80
2019-04-27T10:44:57.494Z,8.00
2019-04-27T10:45:57.512Z,9.70
2019-04-27T10:46:57.445Z,9.00
2019-04-27T10:47:57.530Z,7.80
2019-04-27T10:48:57.477Z,7.40
2019-04-27T10:49:57.548Z,6.70
2019-04-27T10:50:57.407Z,7.40
2019-04-27T10:51:57.453Z,7.80
2019-04-27T10:52:59.305Z,7.60
2019-04-27T10:53:57.508Z,7.90
2019-04-27T10:54:57.529Z,7.60
2019-04-27T10:55:57.487Z,9.20
2019-04-27T10:56:57.340Z,9.10
2019-04-27T10:57:57.816Z,7.00
2019-04-27T10:58:57.354Z,8.70
2019-04-27T10:59:57.745Z,8.00
2019-04-27T11:00:58.421Z,7.90
2019-04-27T11:01:57.320Z,9.00
2019-04-27T11:02:58.372Z,8.20
2019-04-27T11:03:57.585Z,9.80
2019-04-27T11:04:57.259Z,8.20
2019-04-27T11:05:57.383Z,8.10
2019-04-27T11:06:57.245Z,10.40
2019-04-27T11:07:57.258Z,7.60
2019-04-27T11:08:57.288Z,9.10
2019-04-27T11:09:57.303Z,8.20
2019-04-27T11:10:57.235Z,6.60
2019-04-27T11:11:57.391Z,8.10
2019-04-27T11:12:57.276Z,7.60
2019-04-27T11:14:00.731Z,7.80
2019-04-27T11:14:57.178Z,8.10
2019-04-27T11:15:57.245Z,8.70
2019-04-27T11:16:57.126Z,9.20
2019-04-27T11:17:57.291Z,7.60
2019-04-27T11:18:58.728Z,7.90
2019-04-27T11:19:57.277Z,8.50
2019-04-27T11:20:57.118Z,6.60
2019-04-27T11:21:57.149Z,6.50
2019-04-27T11:23:07.185Z,9.00
2019-04-27T11:23:58.069Z,8.10
2019-04-27T11:24:57.097Z,10.00
2019-04-27T11:25:57.030Z,12.10
2019-04-27T11:26:57.498Z,14.20
2019-04-27T11:27:57.805Z,13.50
2019-04-27T11:28:57.207Z,9.10
2019-04-27T11:29:57.014Z,12.10
2019-04-27T11:30:57.053Z,10.40
2019-04-27T11:31:56.968Z,10.80
2019-04-27T11:32:59.216Z,10.10
2019-04-27T11:33:56.945Z,9.90
2019-04-27T11:34:58.012Z,13.10
2019-04-27T11:35:56.919Z,11.40
2019-04-27T11:36:56.984Z,12.70
2019-04-27T11:37:56.890Z,16.30
2019-04-27T11:38:56.971Z,11.30
2019-04-27T11:39:56.902Z,12.40
2019-04-27T11:40:57.010Z,12.20
2019-04-27T11:41:56.998Z,13.10
2019-04-27T11:42:57.361Z,11.70
2019-04-27T11:43:56.826Z,13.20
2019-04-27T11:44:58.317Z,13.90
2019-04-27T11:45:56.833Z,15.20
2019-04-27T11:46:56.919Z,15.90
2019-04-27T11:47:57.130Z,17.20
2019-04-27T11:48:58.333Z,13.00
2019-04-27T11:49:57.927Z,11.70
2019-04-27T11:50:56.871Z,13.50
2019-04-27T11:51:56.811Z,15.40
2019-04-27T11:52:56.855Z,15.40
2019-04-27T11:53:56.742Z,12.20
2019-04-27T11:54:56.775Z,18.30
2019-04-27T11:55:56.737Z,17.70
2019-04-27T11:56:56.801Z,17.50
2019-04-27T11:57:56.689Z,14.50
2019-04-27T11:58:56.696Z,18.20
2019-04-27T11:59:58.090Z,13.00
2019-04-27T12:00:56.743Z,15.20
2019-04-27T12:01:56.632Z,17.00
2019-04-27T12:02:56.870Z,10.70
2019-04-27T12:03:56.650Z,9.50
2019-04-27T12:04:56.634Z,10.70
2019-04-27T12:06:00.017Z,8.60
2019-04-27T12:06:56.645Z,12.40
2019-04-27T12:07:56.741Z,9.10
2019-04-27T12:08:56.807Z,10.80
2019-04-27T12:09:56.538Z,9.80
2019-04-27T12:10:56.606Z,9.90
2019-04-27T12:12:06.755Z,11.30
2019-04-27T12:12:57.503Z,11.50
2019-04-27T12:13:56.592Z,8.60
2019-04-27T12:14:56.486Z,10.20
2019-04-27T12:15:56.560Z,13.60
2019-04-27T12:16:56.508Z,10.40
2019-04-27T12:17:56.516Z,10.00
2019-04-27T12:18:56.532Z,9.00
2019-04-27T12:19:56.539Z,11.30
2019-04-27T12:20:56.450Z,13.10
2019-04-27T12:21:56.650Z,10.20
2019-04-27T12:22:56.396Z,9.50
2019-04-27T12:23:56.455Z,12.30
2019-04-27T12:24:56.382Z,11.50
2019-04-27T12:25:56.473Z,14.00
2019-04-27T12:26:57.438Z,10.40
2019-04-27T12:27:56.384Z,14.30
2019-04-27T12:28:56.324Z,9.90
2019-04-27T12:29:56.395Z,10.90
2019-04-27T12:30:56.305Z,9.90
2019-04-27T12:31:56.443Z,7.60
2019-04-27T12:32:56.295Z,11.80
2019-04-27T12:33:56.329Z,8.40
2019-04-27T12:34:56.586Z,10.50
2019-04-27T12:35:56.868Z,10.70
2019-04-27T12:36:56.282Z,12.90
2019-04-27T12:37:56.364Z,9.80
2019-04-27T12:38:56.686Z,9.70
2019-04-27T12:39:57.706Z,11.80
2019-04-27T12:40:56.578Z,10.30
2019-04-27T12:41:56.304Z,16.60
2019-04-27T12:42:56.177Z,9.40
2019-04-27T12:43:56.242Z,9.60
2019-04-27T12:44:56.147Z,10.10
2019-04-27T12:45:56.206Z,12.90
2019-04-27T12:47:02.266Z,12.90
2019-04-27T12:47:57.241Z,12.10
2019-04-27T12:48:57.238Z,9.90
2019-04-27T12:49:57.746Z,8.70
2019-04-27T12:50:56.414Z,7.90
2019-04-27T12:51:56.195Z,12.50
2019-04-27T12:52:56.057Z,8.90
2019-04-27T12:53:56.158Z,12.90
2019-04-27T12:54:56.039Z,15.30
2019-04-27T12:55:56.527Z,10.60
2019-04-27T12:56:56.065Z,11.10
2019-04-27T12:57:56.080Z,7.80
2019-04-27T12:58:56.535Z,9.80
2019-04-27T12:59:56.711Z,12.20
2019-04-27T13:00:55.967Z,10.40
2019-04-27T13:01:56.212Z,12.70
2019-04-27T13:02:57.779Z,12.40
2019-04-27T13:03:58.892Z,8.80
2019-04-27T13:04:56.795Z,8.80
2019-04-27T13:05:56.033Z,11.00
2019-04-27T13:06:55.980Z,11.90
2019-04-27T13:07:55.980Z,10.50
2019-04-27T13:08:55.939Z,11.70
2019-04-27T13:09:56.463Z,16.70
2019-04-27T13:10:57.411Z,9.80
2019-04-27T13:11:56.127Z,13.80
2019-04-27T13:12:56.240Z,14.40
2019-04-27T13:13:57.513Z,13.30
2019-04-27T13:14:55.896Z,10.40
2019-04-27T13:15:56.421Z,10.40
2019-04-27T13:16:56.149Z,11.40